sensor_id;sensor_type;location;lat;lon;timestamp;temperature;humidity
22674;DHT22;11504;43.334;21.918;2023-02-28T00:00:55;6.4;100.0
22674;DHT22;11504;43.334;21.918;2023-02-28T00:05:33;6.4;100.0
22674;DHT22;11504;43.334;21.918;2023-02-28T00:10:18;6.4;100.0
22674;DHT22;11504;43.334;21.918;2023-02-28T00:14:55;6.4;100.0
22674;DHT22;11504;43.334;21.918;2023-02-28T00:19:31;6.4;100.0
22674;DHT22;11504;43.334;21.918;2023-02-28T00:24:07;6.3;100.0
22674;DHT22;11504;43.334;21.918;2023-02-28T00:28:44;6.3;100.0
22674;DHT22;11504;43.334;21.918;2023-02-28T00:33:21;6.2;100.0
22674;DHT22;11504;43.334;21.918;2023-02-28T00:37:58;6.2;100.0
22674;DHT22;11504;43.334;21.918;2023-02-28T00:42:36;6.2;100.0
22674;DHT22;11504;43.334;21.918;2023-02-28T00:47:15;6.2;100.0
22674;DHT22;11504;43.334;21.918;2023-02-28T00:51:56;6.2;100.0
22674;DHT22;11504;43.334;21.918;2023-02-28T00:56:33;6.2;100.0
22674;DHT22;11504;43.334;21.918;2023-02-28T01:01:10;6.2;100.0
22674;DHT22;11504;43.334;21.918;2023-02-28T01:05:47;6.3;100.0
22674;DHT22;11504;43.334;21.918;2023-02-28T01:10:28;6.3;100.0
22674;DHT22;11504;43.334;21.918;2023-02-28T01:15:11;6.4;100.0
22674;DHT22;11504;43.334;21.918;2023-02-28T01:19:48;6.4;100.0
22674;DHT22;11504;43.334;21.918;2023-02-28T01:24:25;6.4;100.0
22674;DHT22;11504;43.334;21.918;2023-02-28T01:29:03;6.4;100.0
22674;DHT22;11504;43.334;21.918;2023-02-28T01:33:41;6.4;100.0
22674;DHT22;11504;43.334;21.918;2023-02-28T01:38:18;6.4;100.0
22674;DHT22;11504;43.334;21.918;2023-02-28T01:42:55;6.4;100.0
22674;DHT22;11504;43.334;21.918;2023-02-28T01:47:42;6.4;100.0
22674;DHT22;11504;43.334;21.918;2023-02-28T01:52:29;6.4;100.0
22674;DHT22;11504;43.334;21.918;2023-02-28T01:57:24;6.4;100.0
22674;DHT22;11504;43.334;21.918;2023-02-28T02:02:16;6.4;100.0
22674;DHT22;11504;43.334;21.918;2023-02-28T02:06:59;6.4;100.0
22674;DHT22;11504;43.334;21.918;2023-02-28T02:11:44;6.4;100.0
22674;DHT22;11504;43.334;21.918;2023-02-28T02:17:13;6.4;100.0
22674;DHT22;11504;43.334;21.918;2023-02-28T02:23:40;6.3;100.0
22674;DHT22;11504;43.334;21.918;2023-02-28T02:32:28;6.3;100.0
22674;DHT22;11504;43.334;21.918;2023-02-28T02:37:40;6.2;100.0
22674;DHT22;11504;43.334;21.918;2023-02-28T02:42:41;6.1;100.0
22674;DHT22;11504;43.334;21.918;2023-02-28T02:47:31;6.1;100.0
22674;DHT22;11504;43.334;21.918;2023-02-28T02:52:27;6.1;100.0
22674;DHT22;11504;43.334;21.918;2023-02-28T02:57:24;5.9;100.0
22674;DHT22;11504;43.334;21.918;2023-02-28T03:02:17;5.9;100.0
22674;DHT22;11504;43.334;21.918;2023-02-28T03:06:59;5.9;100.0
22674;DHT22;11504;43.334;21.918;2023-02-28T03:11:42;5.9;100.0
22674;DHT22;11504;43.334;21.918;2023-02-28T03:17:10;5.9;100.0
22674;DHT22;11504;43.334;21.918;2023-02-28T03:22:58;6.0;100.0
22674;DHT22;11504;43.334;21.918;2023-02-28T03:28:30;6.0;100.0
22674;DHT22;11504;43.334;21.918;2023-02-28T03:33:42;6.0;100.0
22674;DHT22;11504;43.334;21.918;2023-02-28T03:38:49;6.0;100.0
22674;DHT22;11504;43.334;21.918;2023-02-28T03:43:55;6.1;100.0
22674;DHT22;11504;43.334;21.918;2023-02-28T03:49:01;6.1;100.0
22674;DHT22;11504;43.334;21.918;2023-02-28T03:54:04;6.2;100.0
22674;DHT22;11504;43.334;21.918;2023-02-28T03:59:05;6.2;100.0
22674;DHT22;11504;43.334;21.918;2023-02-28T04:03:51;6.2;100.0
22674;DHT22;11504;43.334;21.918;2023-02-28T04:08:28;6.2;100.0
22674;DHT22;11504;43.334;21.918;2023-02-28T04:13:05;6.3;100.0
22674;DHT22;11504;43.334;21.918;2023-02-28T04:17:41;6.3;100.0
22674;DHT22;11504;43.334;21.918;2023-02-28T04:22:18;6.3;100.0
22674;DHT22;11504;43.334;21.918;2023-02-28T04:26:58;6.3;100.0
22674;DHT22;11504;43.334;21.918;2023-02-28T04:31:35;6.3;100.0
22674;DHT22;11504;43.334;21.918;2023-02-28T04:36:12;6.3;100.0
22674;DHT22;11504;43.334;21.918;2023-02-28T04:40:49;6.3;100.0
22674;DHT22;11504;43.334;21.918;2023-02-28T04:45:26;6.2;100.0
22674;DHT22;11504;43.334;21.918;2023-02-28T04:50:05;6.2;100.0
22674;DHT22;11504;43.334;21.918;2023-02-28T04:54:43;6.1;100.0
22674;DHT22;11504;43.334;21.918;2023-02-28T04:59:19;6.1;100.0
22674;DHT22;11504;43.334;21.918;2023-02-28T05:04:04;6.1;100.0
22674;DHT22;11504;43.334;21.918;2023-02-28T05:08:41;6.1;100.0
22674;DHT22;11504;43.334;21.918;2023-02-28T05:13:18;6.1;100.0
22674;DHT22;11504;43.334;21.918;2023-02-28T05:17:54;6.1;100.0
22674;DHT22;11504;43.334;21.918;2023-02-28T05:22:31;6.1;100.0
22674;DHT22;11504;43.334;21.918;2023-02-28T05:27:10;5.9;100.0
22674;DHT22;11504;43.334;21.918;2023-02-28T05:31:47;5.9;100.0
22674;DHT22;11504;43.334;21.918;2023-02-28T05:36:25;5.8;100.0
22674;DHT22;11504;43.334;21.918;2023-02-28T05:41:08;5.8;100.0
22674;DHT22;11504;43.334;21.918;2023-02-28T05:45:46;6.0;100.0
22674;DHT22;11504;43.334;21.918;2023-02-28T05:50:23;6.0;100.0
22674;DHT22;11504;43.334;21.918;2023-02-28T05:54:59;6.2;100.0
22674;DHT22;11504;43.334;21.918;2023-02-28T05:59:36;6.2;100.0
22674;DHT22;11504;43.334;21.918;2023-02-28T06:04:19;6.2;100.0
22674;DHT22;11504;43.334;21.918;2023-02-28T06:08:57;6.2;100.0
22674;DHT22;11504;43.334;21.918;2023-02-28T06:13:34;6.3;100.0
22674;DHT22;11504;43.334;21.918;2023-02-28T06:18:11;6.3;100.0
22674;DHT22;11504;43.334;21.918;2023-02-28T06:22:47;6.2;100.0
22674;DHT22;11504;43.334;21.918;2023-02-28T06:27:24;6.2;100.0
22674;DHT22;11504;43.334;21.918;2023-02-28T06:32:01;6.2;100.0
22674;DHT22;11504;43.334;21.918;2023-02-28T06:36:39;6.0;100.0
22674;DHT22;11504;43.334;21.918;2023-02-28T06:41:15;6.0;100.0
22674;DHT22;11504;43.334;21.918;2023-02-28T06:45:58;6.0;100.0
22674;DHT22;11504;43.334;21.918;2023-02-28T06:50:35;6.0;100.0
22674;DHT22;11504;43.334;21.918;2023-02-28T06:55:12;6.1;100.0
22674;DHT22;11504;43.334;21.918;2023-02-28T06:59:49;6.1;100.0
22674;DHT22;11504;43.334;21.918;2023-02-28T07:04:26;6.2;100.0
22674;DHT22;11504;43.334;21.918;2023-02-28T07:09:03;6.2;100.0
22674;DHT22;11504;43.334;21.918;2023-02-28T07:13:41;6.4;100.0
22674;DHT22;11504;43.334;21.918;2023-02-28T07:18:18;6.4;100.0
22674;DHT22;11504;43.334;21.918;2023-02-28T07:22:55;6.6;100.0
22674;DHT22;11504;43.334;21.918;2023-02-28T07:27:32;6.6;100.0
22674;DHT22;11504;43.334;21.918;2023-02-28T07:32:08;6.6;100.0
22674;DHT22;11504;43.334;21.918;2023-02-28T07:36:45;6.9;100.0
22674;DHT22;11504;43.334;21.918;2023-02-28T07:41:23;6.9;100.0
22674;DHT22;11504;43.334;21.918;2023-02-28T07:46:08;7.0;100.0
22674;DHT22;11504;43.334;21.918;2023-02-28T07:50:56;7.0;100.0
22674;DHT22;11504;43.334;21.918;2023-02-28T07:55:34;7.1;100.0
22674;DHT22;11504;43.334;21.918;2023-02-28T08:00:14;7.1;100.0
22674;DHT22;11504;43.334;21.918;2023-02-28T08:04:50;7.2;100.0
22674;DHT22;11504;43.334;21.918;2023-02-28T08:09:27;7.2;100.0
22674;DHT22;11504;43.334;21.918;2023-02-28T08:14:03;7.3;100.0
22674;DHT22;11504;43.334;21.918;2023-02-28T08:18:39;7.3;100.0
22674;DHT22;11504;43.334;21.918;2023-02-28T08:23:16;7.2;100.0
22674;DHT22;11504;43.334;21.918;2023-02-28T08:27:53;7.2;100.0
22674;DHT22;11504;43.334;21.918;2023-02-28T08:32:31;7.2;100.0
22674;DHT22;11504;43.334;21.918;2023-02-28T08:37:09;7.1;100.0
22674;DHT22;11504;43.334;21.918;2023-02-28T08:41:46;7.1;100.0
22674;DHT22;11504;43.334;21.918;2023-02-28T08:46:24;7.3;100.0
22674;DHT22;11504;43.334;21.918;2023-02-28T08:51:12;7.3;100.0
22674;DHT22;11504;43.334;21.918;2023-02-28T08:56:01;7.5;100.0
22674;DHT22;11504;43.334;21.918;2023-02-28T09:00:45;7.5;100.0
22674;DHT22;11504;43.334;21.918;2023-02-28T09:05:21;7.7;100.0
22674;DHT22;11504;43.334;21.918;2023-02-28T09:09:58;7.7;100.0
22674;DHT22;11504;43.334;21.918;2023-02-28T09:14:35;7.9;100.0
22674;DHT22;11504;43.334;21.918;2023-02-28T09:19:12;7.9;100.0
22674;DHT22;11504;43.334;21.918;2023-02-28T09:23:51;8.2;100.0
22674;DHT22;11504;43.334;21.918;2023-02-28T09:28:27;8.2;100.0
22674;DHT22;11504;43.334;21.918;2023-02-28T09:33:04;8.4;100.0
22674;DHT22;11504;43.334;21.918;2023-02-28T09:37:40;8.4;100.0
22674;DHT22;11504;43.334;21.918;2023-02-28T09:42:34;8.4;100.0
22674;DHT22;11504;43.334;21.918;2023-02-28T09:47:33;8.4;100.0
22674;DHT22;11504;43.334;21.918;2023-02-28T09:52:28;8.4;100.0
22674;DHT22;11504;43.334;21.918;2023-02-28T09:57:32;8.5;100.0
22674;DHT22;11504;43.334;21.918;2023-02-28T10:03:25;8.6;100.0
22674;DHT22;11504;43.334;21.918;2023-02-28T10:08:25;8.6;100.0
22674;DHT22;11504;43.334;21.918;2023-02-28T10:13:31;8.7;100.0
22674;DHT22;11504;43.334;21.918;2023-02-28T10:18:30;8.7;100.0
22674;DHT22;11504;43.334;21.918;2023-02-28T10:23:35;8.8;100.0
22674;DHT22;11504;43.334;21.918;2023-02-28T10:28:17;8.8;100.0
22674;DHT22;11504;43.334;21.918;2023-02-28T10:32:54;8.8;100.0
22674;DHT22;11504;43.334;21.918;2023-02-28T10:37:31;8.8;100.0
22674;DHT22;11504;43.334;21.918;2023-02-28T10:42:28;8.8;100.0
22674;DHT22;11504;43.334;21.918;2023-02-28T10:47:05;8.6;100.0
22674;DHT22;11504;43.334;21.918;2023-02-28T10:51:42;8.6;100.0
22674;DHT22;11504;43.334;21.918;2023-02-28T10:56:25;8.5;100.0
22674;DHT22;11504;43.334;21.918;2023-02-28T11:01:01;8.5;100.0
22674;DHT22;11504;43.334;21.918;2023-02-28T11:05:38;8.5;100.0
22674;DHT22;11504;43.334;21.918;2023-02-28T11:10:30;8.5;100.0
22674;DHT22;11504;43.334;21.918;2023-02-28T11:15:29;8.5;100.0
22674;DHT22;11504;43.334;21.918;2023-02-28T11:20:28;8.5;100.0
22674;DHT22;11504;43.334;21.918;2023-02-28T11:25:27;8.6;100.0
22674;DHT22;11504;43.334;21.918;2023-02-28T11:30:35;8.6;100.0
22674;DHT22;11504;43.334;21.918;2023-02-28T11:35:36;8.7;100.0
22674;DHT22;11504;43.334;21.918;2023-02-28T11:40:50;8.7;100.0
22674;DHT22;11504;43.334;21.918;2023-02-28T11:46:37;8.8;100.0
22674;DHT22;11504;43.334;21.918;2023-02-28T11:51:48;8.8;100.0
22674;DHT22;11504;43.334;21.918;2023-02-28T11:56:52;8.9;100.0
22674;DHT22;11504;43.334;21.918;2023-02-28T12:02:26;8.9;100.0
22674;DHT22;11504;43.334;21.918;2023-02-28T12:07:49;8.9;100.0
22674;DHT22;11504;43.334;21.918;2023-02-28T12:13:17;8.9;100.0
22674;DHT22;11504;43.334;21.918;2023-02-28T12:18:55;8.9;100.0
22674;DHT22;11504;43.334;21.918;2023-02-28T12:24:39;9.0;100.0
22674;DHT22;11504;43.334;21.918;2023-02-28T12:29:56;9.0;100.0
22674;DHT22;11504;43.334;21.918;2023-02-28T12:35:10;9.1;100.0
22674;DHT22;11504;43.334;21.918;2023-02-28T12:40:15;9.1;100.0
22674;DHT22;11504;43.334;21.918;2023-02-28T12:45:12;9.2;100.0
22674;DHT22;11504;43.334;21.918;2023-02-28T12:50:10;9.2;100.0
22674;DHT22;11504;43.334;21.918;2023-02-28T12:55:13;9.4;100.0
22674;DHT22;11504;43.334;21.918;2023-02-28T13:00:17;9.4;100.0
22674;DHT22;11504;43.334;21.918;2023-02-28T13:05:45;9.5;100.0
22674;DHT22;11504;43.334;21.918;2023-02-28T13:10:50;9.5;100.0
22674;DHT22;11504;43.334;21.918;2023-02-28T13:15:29;9.6;100.0
22674;DHT22;11504;43.334;21.918;2023-02-28T13:20:25;9.6;100.0
22674;DHT22;11504;43.334;21.918;2023-02-28T13:25:51;9.7;100.0
22674;DHT22;11504;43.334;21.918;2023-02-28T13:31:06;9.7;100.0
22674;DHT22;11504;43.334;21.918;2023-02-28T13:35:46;9.8;100.0
22674;DHT22;11504;43.334;21.918;2023-02-28T13:40:34;9.8;100.0
22674;DHT22;11504;43.334;21.918;2023-02-28T13:45:29;9.8;100.0
22674;DHT22;11504;43.334;21.918;2023-02-28T13:50:35;9.8;100.0
22674;DHT22;11504;43.334;21.918;2023-02-28T13:55:46;9.7;100.0
22674;DHT22;11504;43.334;21.918;2023-02-28T14:01:30;9.7;100.0
22674;DHT22;11504;43.334;21.918;2023-02-28T14:06:53;9.7;100.0
22674;DHT22;11504;43.334;21.918;2023-02-28T14:11:41;9.7;100.0
22674;DHT22;11504;43.334;21.918;2023-02-28T14:16:38;9.7;100.0
22674;DHT22;11504;43.334;21.918;2023-02-28T14:21:31;9.7;100.0
22674;DHT22;11504;43.334;21.918;2023-02-28T14:27:31;9.8;100.0
22674;DHT22;11504;43.334;21.918;2023-02-28T14:32:45;9.8;100.0
22674;DHT22;11504;43.334;21.918;2023-02-28T14:37:43;10.0;100.0
22674;DHT22;11504;43.334;21.918;2023-02-28T14:42:38;10.0;100.0
22674;DHT22;11504;43.334;21.918;2023-02-28T14:47:17;10.0;100.0
22674;DHT22;11504;43.334;21.918;2023-02-28T14:52:20;10.0;100.0
22674;DHT22;11504;43.334;21.918;2023-02-28T14:57:00;9.9;100.0
22674;DHT22;11504;43.334;21.918;2023-02-28T15:01:37;9.9;100.0
22674;DHT22;11504;43.334;21.918;2023-02-28T15:06:17;10.0;100.0
22674;DHT22;11504;43.334;21.918;2023-02-28T15:11:05;10.0;100.0
22674;DHT22;11504;43.334;21.918;2023-02-28T15:16:04;10.0;100.0
22674;DHT22;11504;43.334;21.918;2023-02-28T15:20:46;10.0;100.0
22674;DHT22;11504;43.334;21.918;2023-02-28T15:25:26;10.0;100.0
22674;DHT22;11504;43.334;21.918;2023-02-28T15:30:21;10.0;100.0
22674;DHT22;11504;43.334;21.918;2023-02-28T15:35:32;9.9;100.0
22674;DHT22;11504;43.334;21.918;2023-02-28T15:40:28;9.9;100.0
22674;DHT22;11504;43.334;21.918;2023-02-28T15:45:39;9.8;100.0
22674;DHT22;11504;43.334;21.918;2023-02-28T15:50:22;9.8;100.0
22674;DHT22;11504;43.334;21.918;2023-02-28T15:55:11;9.6;100.0
22674;DHT22;11504;43.334;21.918;2023-02-28T16:00:03;9.6;100.0
22674;DHT22;11504;43.334;21.918;2023-02-28T16:05:19;9.4;100.0
22674;DHT22;11504;43.334;21.918;2023-02-28T16:09:56;9.4;100.0
22674;DHT22;11504;43.334;21.918;2023-02-28T16:14:32;9.3;100.0
22674;DHT22;11504;43.334;21.918;2023-02-28T16:19:09;9.3;100.0
22674;DHT22;11504;43.334;21.918;2023-02-28T16:23:45;9.2;100.0
22674;DHT22;11504;43.334;21.918;2023-02-28T16:28:35;9.2;100.0
22674;DHT22;11504;43.334;21.918;2023-02-28T16:33:14;9.2;100.0
22674;DHT22;11504;43.334;21.918;2023-02-28T16:37:53;9.0;100.0
22674;DHT22;11504;43.334;21.918;2023-02-28T16:42:32;9.0;100.0
22674;DHT22;11504;43.334;21.918;2023-02-28T16:47:11;9.0;100.0
22674;DHT22;11504;43.334;21.918;2023-02-28T16:51:48;9.0;100.0
22674;DHT22;11504;43.334;21.918;2023-02-28T16:56:25;8.9;100.0
22674;DHT22;11504;43.334;21.918;2023-02-28T17:01:03;8.9;100.0
22674;DHT22;11504;43.334;21.918;2023-02-28T17:05:40;8.9;100.0
22674;DHT22;11504;43.334;21.918;2023-02-28T17:10:24;8.9;100.0
22674;DHT22;11504;43.334;21.918;2023-02-28T17:15:05;8.9;100.0
22674;DHT22;11504;43.334;21.918;2023-02-28T17:19:47;8.9;100.0
22674;DHT22;11504;43.334;21.918;2023-02-28T17:24:24;9.0;100.0
22674;DHT22;11504;43.334;21.918;2023-02-28T17:29:01;9.0;100.0
22674;DHT22;11504;43.334;21.918;2023-02-28T17:33:38;9.0;100.0
22674;DHT22;11504;43.334;21.918;2023-02-28T17:38:19;9.0;100.0
22674;DHT22;11504;43.334;21.918;2023-02-28T17:42:56;9.0;100.0
22674;DHT22;11504;43.334;21.918;2023-02-28T17:47:32;9.0;100.0
22674;DHT22;11504;43.334;21.918;2023-02-28T17:52:09;9.0;100.0
22674;DHT22;11504;43.334;21.918;2023-02-28T17:56:45;8.9;100.0
22674;DHT22;11504;43.334;21.918;2023-02-28T18:01:24;8.9;100.0
22674;DHT22;11504;43.334;21.918;2023-02-28T18:06:03;9.0;100.0
22674;DHT22;11504;43.334;21.918;2023-02-28T18:10:41;9.0;100.0
22674;DHT22;11504;43.334;21.918;2023-02-28T18:15:21;9.0;100.0
22674;DHT22;11504;43.334;21.918;2023-02-28T18:19:58;9.0;100.0
22674;DHT22;11504;43.334;21.918;2023-02-28T18:24:35;8.8;100.0
22674;DHT22;11504;43.334;21.918;2023-02-28T18:29:21;8.8;100.0
22674;DHT22;11504;43.334;21.918;2023-02-28T18:34:00;8.7;100.0
22674;DHT22;11504;43.334;21.918;2023-02-28T18:38:37;8.7;100.0
22674;DHT22;11504;43.334;21.918;2023-02-28T18:43:14;8.7;100.0
22674;DHT22;11504;43.334;21.918;2023-02-28T18:47:51;8.6;100.0
22674;DHT22;11504;43.334;21.918;2023-02-28T18:52:27;8.6;100.0
22674;DHT22;11504;43.334;21.918;2023-02-28T18:57:04;8.6;100.0
22674;DHT22;11504;43.334;21.918;2023-02-28T19:01:41;8.6;100.0
22674;DHT22;11504;43.334;21.918;2023-02-28T19:06:19;8.6;100.0
22674;DHT22;11504;43.334;21.918;2023-02-28T19:10:55;8.6;100.0
22674;DHT22;11504;43.334;21.918;2023-02-28T19:15:32;8.7;100.0
22674;DHT22;11504;43.334;21.918;2023-02-28T19:20:12;8.7;100.0
22674;DHT22;11504;43.334;21.918;2023-02-28T19:24:50;8.7;100.0
22674;DHT22;11504;43.334;21.918;2023-02-28T19:29:27;8.7;100.0
22674;DHT22;11504;43.334;21.918;2023-02-28T19:34:04;8.7;100.0
22674;DHT22;11504;43.334;21.918;2023-02-28T19:38:42;8.7;100.0
22674;DHT22;11504;43.334;21.918;2023-02-28T19:43:19;8.7;100.0
22674;DHT22;11504;43.334;21.918;2023-02-28T19:47:56;8.5;100.0
22674;DHT22;11504;43.334;21.918;2023-02-28T19:52:33;8.5;100.0
22674;DHT22;11504;43.334;21.918;2023-02-28T19:57:09;8.3;100.0
22674;DHT22;11504;43.334;21.918;2023-02-28T20:01:46;8.3;100.0
22674;DHT22;11504;43.334;21.918;2023-02-28T20:06:23;8.2;100.0
22674;DHT22;11504;43.334;21.918;2023-02-28T20:11:03;8.2;100.0
22674;DHT22;11504;43.334;21.918;2023-02-28T20:15:42;8.1;100.0
22674;DHT22;11504;43.334;21.918;2023-02-28T20:20:19;8.1;100.0
22674;DHT22;11504;43.334;21.918;2023-02-28T20:24:55;8.0;100.0
22674;DHT22;11504;43.334;21.918;2023-02-28T20:29:32;8.0;100.0
22674;DHT22;11504;43.334;21.918;2023-02-28T20:34:10;7.9;100.0
22674;DHT22;11504;43.334;21.918;2023-02-28T20:38:47;7.9;100.0
22674;DHT22;11504;43.334;21.918;2023-02-28T20:43:26;7.9;100.0
22674;DHT22;11504;43.334;21.918;2023-02-28T20:48:04;8.0;100.0
22674;DHT22;11504;43.334;21.918;2023-02-28T20:52:40;8.0;100.0
22674;DHT22;11504;43.334;21.918;2023-02-28T20:57:16;8.0;100.0
22674;DHT22;11504;43.334;21.918;2023-02-28T21:01:53;8.0;100.0
22674;DHT22;11504;43.334;21.918;2023-02-28T21:06:34;8.2;100.0
22674;DHT22;11504;43.334;21.918;2023-02-28T21:11:23;8.2;100.0
22674;DHT22;11504;43.334;21.918;2023-02-28T21:16:06;8.4;100.0
22674;DHT22;11504;43.334;21.918;2023-02-28T21:20:47;8.4;100.0
22674;DHT22;11504;43.334;21.918;2023-02-28T21:25:24;8.4;100.0
22674;DHT22;11504;43.334;21.918;2023-02-28T21:30:00;8.4;100.0
22674;DHT22;11504;43.334;21.918;2023-02-28T21:34:37;8.4;100.0
22674;DHT22;11504;43.334;21.918;2023-02-28T21:39:18;8.4;100.0
22674;DHT22;11504;43.334;21.918;2023-02-28T21:44:02;8.4;100.0
22674;DHT22;11504;43.334;21.918;2023-02-28T21:48:41;8.4;100.0
22674;DHT22;11504;43.334;21.918;2023-02-28T21:53:19;8.4;100.0
22674;DHT22;11504;43.334;21.918;2023-02-28T21:57:55;8.5;100.0
22674;DHT22;11504;43.334;21.918;2023-02-28T22:02:32;8.5;100.0
22674;DHT22;11504;43.334;21.918;2023-02-28T22:07:09;8.5;100.0
22674;DHT22;11504;43.334;21.918;2023-02-28T22:11:46;8.5;100.0
22674;DHT22;11504;43.334;21.918;2023-02-28T22:16:29;8.5;100.0
22674;DHT22;11504;43.334;21.918;2023-02-28T22:21:12;8.5;100.0
22674;DHT22;11504;43.334;21.918;2023-02-28T22:25:55;8.4;100.0
22674;DHT22;11504;43.334;21.918;2023-02-28T22:30:40;8.4;100.0
22674;DHT22;11504;43.334;21.918;2023-02-28T22:35:17;8.2;100.0
22674;DHT22;11504;43.334;21.918;2023-02-28T22:39:54;8.2;100.0
22674;DHT22;11504;43.334;21.918;2023-02-28T22:44:30;8.1;100.0
22674;DHT22;11504;43.334;21.918;2023-02-28T22:49:07;8.1;100.0
22674;DHT22;11504;43.334;21.918;2023-02-28T22:53:47;8.1;100.0
22674;DHT22;11504;43.334;21.918;2023-02-28T22:58:27;8.1;100.0
22674;DHT22;11504;43.334;21.918;2023-02-28T23:03:04;8.1;100.0
22674;DHT22;11504;43.334;21.918;2023-02-28T23:07:42;8.1;100.0
22674;DHT22;11504;43.334;21.918;2023-02-28T23:12:18;8.1;100.0
22674;DHT22;11504;43.334;21.918;2023-02-28T23:16:55;8.1;100.0
22674;DHT22;11504;43.334;21.918;2023-02-28T23:21:33;8.1;100.0
22674;DHT22;11504;43.334;21.918;2023-02-28T23:26:11;8.0;100.0
22674;DHT22;11504;43.334;21.918;2023-02-28T23:30:48;8.0;100.0
22674;DHT22;11504;43.334;21.918;2023-02-28T23:35:24;8.0;100.0
22674;DHT22;11504;43.334;21.918;2023-02-28T23:40:02;8.0;100.0
22674;DHT22;11504;43.334;21.918;2023-02-28T23:44:46;8.0;100.0
22674;DHT22;11504;43.334;21.918;2023-02-28T23:49:22;8.0;100.0
